sensor_id;sensor_type;location;lat;lon;timestamp;P1;durP1;ratioP1;P2;durP2;ratioP2
15258;SDS011;34462;51.368;12.364;2022-09-14T00:01:39;12.52;;;11.32;;
15258;SDS011;34462;51.368;12.364;2022-09-14T00:04:11;11.40;;;10.20;;
15258;SDS011;34462;51.368;12.364;2022-09-14T00:06:43;11.40;;;10.20;;
15258;SDS011;34462;51.368;12.364;2022-09-14T00:09:13;11.77;;;10.63;;
15258;SDS011;34462;51.368;12.364;2022-09-14T00:11:44;10.82;;;9.82;;
15258;SDS011;34462;51.368;12.364;2022-09-14T00:14:12;11.98;;;10.77;;
15258;SDS011;34462;51.368;12.364;2022-09-14T00:16:41;12.20;;;11.10;;
15258;SDS011;34462;51.368;12.364;2022-09-14T00:19:14;11.52;;;10.32;;
15258;SDS011;34462;51.368;12.364;2022-09-14T00:21:49;10.82;;;9.90;;
15258;SDS011;34462;51.368;12.364;2022-09-14T00:24:19;10.30;;;9.23;;
15258;SDS011;34462;51.368;12.364;2022-09-14T00:26:49;11.30;;;10.20;;
15258;SDS011;34462;51.368;12.364;2022-09-14T00:29:18;11.32;;;10.23;;
15258;SDS011;34462;51.368;12.364;2022-09-14T00:31:46;10.90;;;9.90;;
15258;SDS011;34462;51.368;12.364;2022-09-14T00:34:14;10.23;;;9.32;;
15258;SDS011;34462;51.368;12.364;2022-09-14T00:36:46;11.20;;;10.07;;
15258;SDS011;34462;51.368;12.364;2022-09-14T00:39:17;10.63;;;9.63;;
15258;SDS011;34462;51.368;12.364;2022-09-14T00:41:48;11.15;;;10.05;;
15258;SDS011;34462;51.368;12.364;2022-09-14T00:47:29;10.90;;;9.82;;
15258;SDS011;34462;51.368;12.364;2022-09-14T00:50:01;11.23;;;10.13;;
15258;SDS011;34462;51.368;12.364;2022-09-14T00:52:32;10.77;;;9.75;;
15258;SDS011;34462;51.368;12.364;2022-09-14T00:55:07;10.30;;;9.32;;
15258;SDS011;34462;51.368;12.364;2022-09-14T00:57:40;9.88;;;8.98;;
15258;SDS011;34462;51.368;12.364;2022-09-14T01:00:15;8.93;;;8.05;;
15258;SDS011;34462;51.368;12.364;2022-09-14T01:02:49;10.07;;;9.07;;
15258;SDS011;34462;51.368;12.364;2022-09-14T01:05:19;11.13;;;10.02;;
15258;SDS011;34462;51.368;12.364;2022-09-14T01:11:20;10.68;;;9.73;;
15258;SDS011;34462;51.368;12.364;2022-09-14T01:14:08;12.13;;;10.32;;
15258;SDS011;34462;51.368;12.364;2022-09-14T01:16:47;10.02;;;9.02;;
15258;SDS011;34462;51.368;12.364;2022-09-14T01:19:31;11.32;;;10.18;;
15258;SDS011;34462;51.368;12.364;2022-09-14T01:22:17;11.43;;;10.32;;
15258;SDS011;34462;51.368;12.364;2022-09-14T01:24:53;11.02;;;9.93;;
15258;SDS011;34462;51.368;12.364;2022-09-14T01:27:31;11.32;;;10.23;;
15258;SDS011;34462;51.368;12.364;2022-09-14T01:30:07;10.38;;;9.18;;
15258;SDS011;34462;51.368;12.364;2022-09-14T01:32:39;9.07;;;8.18;;
15258;SDS011;34462;51.368;12.364;2022-09-14T01:35:19;8.35;;;7.55;;
15258;SDS011;34462;51.368;12.364;2022-09-14T01:37:56;9.10;;;8.20;;
15258;SDS011;34462;51.368;12.364;2022-09-14T01:40:29;8.43;;;7.50;;
15258;SDS011;34462;51.368;12.364;2022-09-14T01:43:05;7.68;;;6.93;;
15258;SDS011;34462;51.368;12.364;2022-09-14T01:45:38;9.07;;;7.60;;
15258;SDS011;34462;51.368;12.364;2022-09-14T01:48:13;8.48;;;6.85;;
15258;SDS011;34462;51.368;12.364;2022-09-14T01:50:48;8.70;;;6.95;;
15258;SDS011;34462;51.368;12.364;2022-09-14T01:53:23;7.72;;;7.03;;
15258;SDS011;34462;51.368;12.364;2022-09-14T01:56:00;7.78;;;6.97;;
15258;SDS011;34462;51.368;12.364;2022-09-14T01:58:37;7.88;;;6.97;;
15258;SDS011;34462;51.368;12.364;2022-09-14T02:01:12;9.27;;;7.75;;
15258;SDS011;34462;51.368;12.364;2022-09-14T02:03:47;9.30;;;7.18;;
15258;SDS011;34462;51.368;12.364;2022-09-14T02:06:22;9.20;;;7.68;;
15258;SDS011;34462;51.368;12.364;2022-09-14T02:08:58;9.43;;;7.20;;
15258;SDS011;34462;51.368;12.364;2022-09-14T02:11:30;9.55;;;7.05;;
15258;SDS011;34462;51.368;12.364;2022-09-14T02:13:59;8.35;;;7.45;;
15258;SDS011;34462;51.368;12.364;2022-09-14T02:16:28;8.85;;;7.43;;
15258;SDS011;34462;51.368;12.364;2022-09-14T02:18:56;7.53;;;6.78;;
15258;SDS011;34462;51.368;12.364;2022-09-14T02:21:27;7.72;;;6.93;;
15258;SDS011;34462;51.368;12.364;2022-09-14T02:23:57;7.65;;;6.85;;
15258;SDS011;34462;51.368;12.364;2022-09-14T02:26:26;6.95;;;6.20;;
15258;SDS011;34462;51.368;12.364;2022-09-14T02:28:55;8.23;;;7.07;;
15258;SDS011;34462;51.368;12.364;2022-09-14T02:31:31;7.85;;;6.95;;
15258;SDS011;34462;51.368;12.364;2022-09-14T02:34:14;6.53;;;5.82;;
15258;SDS011;34462;51.368;12.364;2022-09-14T02:36:57;8.23;;;7.30;;
15258;SDS011;34462;51.368;12.364;2022-09-14T02:39:34;7.97;;;6.70;;
15258;SDS011;34462;51.368;12.364;2022-09-14T02:42:20;6.93;;;6.22;;
15258;SDS011;34462;51.368;12.364;2022-09-14T02:45:08;6.63;;;6.03;;
15258;SDS011;34462;51.368;12.364;2022-09-14T02:47:49;6.55;;;5.95;;
15258;SDS011;34462;51.368;12.364;2022-09-14T02:50:27;6.88;;;5.72;;
15258;SDS011;34462;51.368;12.364;2022-09-14T02:53:07;6.32;;;5.72;;
15258;SDS011;34462;51.368;12.364;2022-09-14T02:55:45;6.18;;;5.68;;
15258;SDS011;34462;51.368;12.364;2022-09-14T02:58:20;7.10;;;6.18;;
15258;SDS011;34462;51.368;12.364;2022-09-14T03:00:48;7.13;;;6.25;;
15258;SDS011;34462;51.368;12.364;2022-09-14T03:03:19;7.72;;;5.28;;
15258;SDS011;34462;51.368;12.364;2022-09-14T03:05:48;5.93;;;5.20;;
15258;SDS011;34462;51.368;12.364;2022-09-14T03:08:16;6.15;;;5.20;;
15258;SDS011;34462;51.368;12.364;2022-09-14T03:10:44;7.45;;;5.63;;
15258;SDS011;34462;51.368;12.364;2022-09-14T03:13:12;7.50;;;5.38;;
15258;SDS011;34462;51.368;12.364;2022-09-14T03:15:40;6.25;;;5.05;;
15258;SDS011;34462;51.368;12.364;2022-09-14T03:18:08;5.75;;;5.05;;
15258;SDS011;34462;51.368;12.364;2022-09-14T03:20:41;5.57;;;4.90;;
15258;SDS011;34462;51.368;12.364;2022-09-14T03:23:10;5.40;;;4.90;;
15258;SDS011;34462;51.368;12.364;2022-09-14T03:25:40;7.40;;;5.50;;
15258;SDS011;34462;51.368;12.364;2022-09-14T03:28:10;6.18;;;4.90;;
15258;SDS011;34462;51.368;12.364;2022-09-14T03:30:39;6.07;;;5.47;;
15258;SDS011;34462;51.368;12.364;2022-09-14T03:33:07;5.95;;;5.35;;
15258;SDS011;34462;51.368;12.364;2022-09-14T03:35:36;6.03;;;4.70;;
15258;SDS011;34462;51.368;12.364;2022-09-14T03:38:06;6.63;;;4.82;;
15258;SDS011;34462;51.368;12.364;2022-09-14T03:40:34;6.22;;;4.78;;
15258;SDS011;34462;51.368;12.364;2022-09-14T03:43:02;5.50;;;4.30;;
15258;SDS011;34462;51.368;12.364;2022-09-14T03:45:30;6.25;;;4.70;;
15258;SDS011;34462;51.368;12.364;2022-09-14T03:47:58;4.70;;;4.28;;
15258;SDS011;34462;51.368;12.364;2022-09-14T03:50:26;5.82;;;4.80;;
15258;SDS011;34462;51.368;12.364;2022-09-14T03:52:54;6.20;;;5.30;;
15258;SDS011;34462;51.368;12.364;2022-09-14T03:55:23;6.28;;;4.60;;
15258;SDS011;34462;51.368;12.364;2022-09-14T03:57:52;7.65;;;4.78;;
15258;SDS011;34462;51.368;12.364;2022-09-14T04:00:20;7.32;;;4.55;;
15258;SDS011;34462;51.368;12.364;2022-09-14T04:02:49;5.65;;;4.35;;
15258;SDS011;34462;51.368;12.364;2022-09-14T04:05:17;6.40;;;5.05;;
15258;SDS011;34462;51.368;12.364;2022-09-14T04:07:47;5.90;;;4.65;;
15258;SDS011;34462;51.368;12.364;2022-09-14T04:10:15;6.13;;;4.60;;
15258;SDS011;34462;51.368;12.364;2022-09-14T04:12:45;5.45;;;4.53;;
15258;SDS011;34462;51.368;12.364;2022-09-14T04:15:13;5.88;;;4.32;;
15258;SDS011;34462;51.368;12.364;2022-09-14T04:17:41;5.90;;;3.83;;
15258;SDS011;34462;51.368;12.364;2022-09-14T04:20:09;6.07;;;3.85;;
15258;SDS011;34462;51.368;12.364;2022-09-14T04:22:37;5.78;;;3.88;;
15258;SDS011;34462;51.368;12.364;2022-09-14T04:25:06;5.97;;;3.80;;
15258;SDS011;34462;51.368;12.364;2022-09-14T04:27:34;5.57;;;3.88;;
15258;SDS011;34462;51.368;12.364;2022-09-14T04:30:04;5.20;;;4.00;;
15258;SDS011;34462;51.368;12.364;2022-09-14T04:32:33;5.30;;;4.05;;
15258;SDS011;34462;51.368;12.364;2022-09-14T04:35:01;6.90;;;3.70;;
15258;SDS011;34462;51.368;12.364;2022-09-14T04:37:30;7.78;;;3.50;;
15258;SDS011;34462;51.368;12.364;2022-09-14T04:39:58;5.75;;;4.50;;
15258;SDS011;34462;51.368;12.364;2022-09-14T04:42:28;4.10;;;3.60;;
15258;SDS011;34462;51.368;12.364;2022-09-14T04:44:56;5.75;;;4.07;;
15258;SDS011;34462;51.368;12.364;2022-09-14T04:47:25;4.32;;;3.65;;
15258;SDS011;34462;51.368;12.364;2022-09-14T04:49:55;5.32;;;3.70;;
15258;SDS011;34462;51.368;12.364;2022-09-14T04:52:24;7.35;;;3.85;;
15258;SDS011;34462;51.368;12.364;2022-09-14T04:54:52;7.65;;;3.70;;
15258;SDS011;34462;51.368;12.364;2022-09-14T04:57:20;4.88;;;3.70;;
15258;SDS011;34462;51.368;12.364;2022-09-14T04:59:48;4.60;;;3.75;;
15258;SDS011;34462;51.368;12.364;2022-09-14T05:02:16;5.90;;;4.07;;
15258;SDS011;34462;51.368;12.364;2022-09-14T05:04:45;7.13;;;4.10;;
15258;SDS011;34462;51.368;12.364;2022-09-14T05:07:13;4.43;;;3.30;;
15258;SDS011;34462;51.368;12.364;2022-09-14T05:09:41;5.88;;;3.50;;
15258;SDS011;34462;51.368;12.364;2022-09-14T05:12:09;5.38;;;3.58;;
15258;SDS011;34462;51.368;12.364;2022-09-14T05:14:37;6.60;;;3.92;;
15258;SDS011;34462;51.368;12.364;2022-09-14T05:17:05;4.22;;;3.83;;
15258;SDS011;34462;51.368;12.364;2022-09-14T05:19:34;6.22;;;3.80;;
15258;SDS011;34462;51.368;12.364;2022-09-14T05:22:03;8.77;;;3.90;;
15258;SDS011;34462;51.368;12.364;2022-09-14T05:24:31;4.78;;;3.72;;
15258;SDS011;34462;51.368;12.364;2022-09-14T05:26:59;6.30;;;3.63;;
15258;SDS011;34462;51.368;12.364;2022-09-14T05:29:27;5.60;;;3.42;;
15258;SDS011;34462;51.368;12.364;2022-09-14T05:31:57;4.65;;;3.40;;
15258;SDS011;34462;51.368;12.364;2022-09-14T05:34:25;8.77;;;3.65;;
15258;SDS011;34462;51.368;12.364;2022-09-14T05:36:53;6.53;;;4.15;;
15258;SDS011;34462;51.368;12.364;2022-09-14T05:39:22;7.07;;;3.92;;
15258;SDS011;34462;51.368;12.364;2022-09-14T05:41:51;6.55;;;3.88;;
15258;SDS011;34462;51.368;12.364;2022-09-14T05:44:19;5.13;;;3.85;;
15258;SDS011;34462;51.368;12.364;2022-09-14T05:46:47;4.97;;;3.42;;
15258;SDS011;34462;51.368;12.364;2022-09-14T05:49:15;5.40;;;3.75;;
15258;SDS011;34462;51.368;12.364;2022-09-14T05:51:43;6.53;;;3.92;;
15258;SDS011;34462;51.368;12.364;2022-09-14T05:54:11;8.52;;;3.78;;
15258;SDS011;34462;51.368;12.364;2022-09-14T05:56:41;6.53;;;3.70;;
15258;SDS011;34462;51.368;12.364;2022-09-14T05:59:09;6.03;;;3.47;;
15258;SDS011;34462;51.368;12.364;2022-09-14T06:01:37;5.55;;;3.40;;
15258;SDS011;34462;51.368;12.364;2022-09-14T06:04:05;6.53;;;3.85;;
15258;SDS011;34462;51.368;12.364;2022-09-14T06:06:34;4.82;;;3.25;;
15258;SDS011;34462;51.368;12.364;2022-09-14T06:09:03;7.93;;;3.80;;
15258;SDS011;34462;51.368;12.364;2022-09-14T06:11:32;5.45;;;3.55;;
15258;SDS011;34462;51.368;12.364;2022-09-14T06:14:04;5.72;;;3.38;;
15258;SDS011;34462;51.368;12.364;2022-09-14T06:16:33;5.97;;;3.17;;
15258;SDS011;34462;51.368;12.364;2022-09-14T06:19:01;6.18;;;3.20;;
15258;SDS011;34462;51.368;12.364;2022-09-14T06:21:31;6.80;;;3.28;;
15258;SDS011;34462;51.368;12.364;2022-09-14T06:24:01;7.13;;;3.60;;
15258;SDS011;34462;51.368;12.364;2022-09-14T06:26:29;5.40;;;2.97;;
15258;SDS011;34462;51.368;12.364;2022-09-14T06:28:58;7.35;;;3.25;;
15258;SDS011;34462;51.368;12.364;2022-09-14T06:31:27;4.88;;;3.42;;
15258;SDS011;34462;51.368;12.364;2022-09-14T06:33:55;7.97;;;3.13;;
15258;SDS011;34462;51.368;12.364;2022-09-14T06:36:24;6.20;;;2.75;;
15258;SDS011;34462;51.368;12.364;2022-09-14T06:38:54;4.38;;;2.38;;
15258;SDS011;34462;51.368;12.364;2022-09-14T06:41:24;6.15;;;2.90;;
15258;SDS011;34462;51.368;12.364;2022-09-14T06:43:55;4.60;;;2.80;;
15258;SDS011;34462;51.368;12.364;2022-09-14T06:46:28;3.97;;;2.70;;
15258;SDS011;34462;51.368;12.364;2022-09-14T06:48:59;4.35;;;2.47;;
15258;SDS011;34462;51.368;12.364;2022-09-14T06:51:31;5.45;;;2.42;;
15258;SDS011;34462;51.368;12.364;2022-09-14T06:54:02;7.53;;;2.70;;
15258;SDS011;34462;51.368;12.364;2022-09-14T06:56:32;5.55;;;2.45;;
15258;SDS011;34462;51.368;12.364;2022-09-14T06:59:03;8.23;;;2.60;;
15258;SDS011;34462;51.368;12.364;2022-09-14T07:01:34;2.03;;;1.73;;
15258;SDS011;34462;51.368;12.364;2022-09-14T07:04:03;6.47;;;2.50;;
15258;SDS011;34462;51.368;12.364;2022-09-14T07:06:37;7.03;;;2.13;;
15258;SDS011;34462;51.368;12.364;2022-09-14T07:09:07;4.60;;;2.35;;
15258;SDS011;34462;51.368;12.364;2022-09-14T07:11:36;4.50;;;2.45;;
15258;SDS011;34462;51.368;12.364;2022-09-14T07:14:05;4.10;;;2.60;;
15258;SDS011;34462;51.368;12.364;2022-09-14T07:16:36;5.25;;;3.25;;
15258;SDS011;34462;51.368;12.364;2022-09-14T07:19:06;7.38;;;3.50;;
15258;SDS011;34462;51.368;12.364;2022-09-14T07:21:38;6.68;;;3.85;;
15258;SDS011;34462;51.368;12.364;2022-09-14T07:24:06;5.63;;;3.95;;
15258;SDS011;34462;51.368;12.364;2022-09-14T07:26:37;6.68;;;4.00;;
15258;SDS011;34462;51.368;12.364;2022-09-14T07:29:09;5.47;;;3.70;;
15258;SDS011;34462;51.368;12.364;2022-09-14T07:31:42;4.82;;;3.38;;
15258;SDS011;34462;51.368;12.364;2022-09-14T07:34:13;5.57;;;3.80;;
15258;SDS011;34462;51.368;12.364;2022-09-14T07:36:42;7.53;;;3.70;;
15258;SDS011;34462;51.368;12.364;2022-09-14T07:39:11;4.95;;;3.33;;
15258;SDS011;34462;51.368;12.364;2022-09-14T07:41:41;5.68;;;2.88;;
15258;SDS011;34462;51.368;12.364;2022-09-14T07:44:12;6.15;;;3.30;;
15258;SDS011;34462;51.368;12.364;2022-09-14T07:46:45;6.65;;;2.60;;
15258;SDS011;34462;51.368;12.364;2022-09-14T07:49:14;4.65;;;3.05;;
15258;SDS011;34462;51.368;12.364;2022-09-14T07:51:43;4.32;;;2.75;;
15258;SDS011;34462;51.368;12.364;2022-09-14T07:54:12;9.05;;;3.00;;
15258;SDS011;34462;51.368;12.364;2022-09-14T07:56:42;5.07;;;2.60;;
15258;SDS011;34462;51.368;12.364;2022-09-14T07:59:12;11.75;;;2.90;;
15258;SDS011;34462;51.368;12.364;2022-09-14T08:02:03;6.80;;;2.60;;
15258;SDS011;34462;51.368;12.364;2022-09-14T08:04:33;5.07;;;2.08;;
15258;SDS011;34462;51.368;12.364;2022-09-14T08:07:01;6.50;;;2.80;;
15258;SDS011;34462;51.368;12.364;2022-09-14T08:09:30;5.35;;;2.78;;
15258;SDS011;34462;51.368;12.364;2022-09-14T08:11:58;5.72;;;2.97;;
15258;SDS011;34462;51.368;12.364;2022-09-14T08:14:26;6.15;;;3.30;;
15258;SDS011;34462;51.368;12.364;2022-09-14T08:16:54;5.72;;;3.20;;
15258;SDS011;34462;51.368;12.364;2022-09-14T08:19:24;7.13;;;3.90;;
15258;SDS011;34462;51.368;12.364;2022-09-14T08:21:52;7.03;;;3.80;;
15258;SDS011;34462;51.368;12.364;2022-09-14T08:24:20;7.40;;;4.03;;
15258;SDS011;34462;51.368;12.364;2022-09-14T08:26:48;6.03;;;3.42;;
15258;SDS011;34462;51.368;12.364;2022-09-14T08:29:17;6.55;;;3.63;;
15258;SDS011;34462;51.368;12.364;2022-09-14T08:31:46;6.82;;;3.75;;
15258;SDS011;34462;51.368;12.364;2022-09-14T08:34:17;4.43;;;3.55;;
15258;SDS011;34462;51.368;12.364;2022-09-14T08:36:47;4.47;;;3.47;;
15258;SDS011;34462;51.368;12.364;2022-09-14T08:39:16;4.03;;;3.00;;
15258;SDS011;34462;51.368;12.364;2022-09-14T08:41:47;4.70;;;3.13;;
15258;SDS011;34462;51.368;12.364;2022-09-14T08:44:22;6.78;;;3.30;;
15258;SDS011;34462;51.368;12.364;2022-09-14T08:46:57;4.88;;;3.33;;
15258;SDS011;34462;51.368;12.364;2022-09-14T08:52:22;9.07;;;2.92;;
15258;SDS011;34462;51.368;12.364;2022-09-14T08:54:59;3.50;;;2.63;;
15258;SDS011;34462;51.368;12.364;2022-09-14T08:57:49;5.30;;;2.60;;
15258;SDS011;34462;51.368;12.364;2022-09-14T09:00:28;5.03;;;2.90;;
15258;SDS011;34462;51.368;12.364;2022-09-14T09:06:15;5.03;;;2.63;;
15258;SDS011;34462;51.368;12.364;2022-09-14T09:08:55;7.13;;;2.45;;
15258;SDS011;34462;51.368;12.364;2022-09-14T09:11:34;4.55;;;2.50;;
15258;SDS011;34462;51.368;12.364;2022-09-14T09:14:09;5.35;;;2.47;;
15258;SDS011;34462;51.368;12.364;2022-09-14T09:16:47;5.47;;;2.80;;
15258;SDS011;34462;51.368;12.364;2022-09-14T09:19:20;2.90;;;2.28;;
15258;SDS011;34462;51.368;12.364;2022-09-14T09:21:55;4.35;;;2.50;;
15258;SDS011;34462;51.368;12.364;2022-09-14T09:24:29;5.72;;;2.63;;
15258;SDS011;34462;51.368;12.364;2022-09-14T09:27:07;4.53;;;2.28;;
15258;SDS011;34462;51.368;12.364;2022-09-14T09:29:37;6.38;;;2.50;;
15258;SDS011;34462;51.368;12.364;2022-09-14T09:32:06;4.65;;;2.30;;
15258;SDS011;34462;51.368;12.364;2022-09-14T09:34:40;3.90;;;1.88;;
15258;SDS011;34462;51.368;12.364;2022-09-14T09:37:10;6.72;;;1.85;;
15258;SDS011;34462;51.368;12.364;2022-09-14T09:39:42;3.25;;;1.38;;
15258;SDS011;34462;51.368;12.364;2022-09-14T09:42:12;4.63;;;1.52;;
15258;SDS011;34462;51.368;12.364;2022-09-14T09:44:57;4.53;;;1.60;;
15258;SDS011;34462;51.368;12.364;2022-09-14T09:47:30;2.80;;;1.50;;
15258;SDS011;34462;51.368;12.364;2022-09-14T09:50:03;3.83;;;1.67;;
15258;SDS011;34462;51.368;12.364;2022-09-14T09:52:47;4.78;;;1.90;;
15258;SDS011;34462;51.368;12.364;2022-09-14T09:55:18;4.53;;;1.65;;
15258;SDS011;34462;51.368;12.364;2022-09-14T09:57:48;2.10;;;1.40;;
15258;SDS011;34462;51.368;12.364;2022-09-14T10:00:17;4.78;;;1.45;;
15258;SDS011;34462;51.368;12.364;2022-09-14T10:02:49;6.13;;;1.70;;
15258;SDS011;34462;51.368;12.364;2022-09-14T10:05:19;4.53;;;1.83;;
15258;SDS011;34462;51.368;12.364;2022-09-14T10:07:54;3.78;;;1.73;;
15258;SDS011;34462;51.368;12.364;2022-09-14T10:10:38;1.90;;;1.20;;
15258;SDS011;34462;51.368;12.364;2022-09-14T10:13:15;2.15;;;1.45;;
15258;SDS011;34462;51.368;12.364;2022-09-14T10:15:52;2.47;;;1.58;;
15258;SDS011;34462;51.368;12.364;2022-09-14T10:18:20;4.97;;;1.67;;
15258;SDS011;34462;51.368;12.364;2022-09-14T10:21:04;5.78;;;1.58;;
15258;SDS011;34462;51.368;12.364;2022-09-14T10:23:36;4.25;;;1.33;;
15258;SDS011;34462;51.368;12.364;2022-09-14T10:26:21;5.18;;;1.50;;
15258;SDS011;34462;51.368;12.364;2022-09-14T10:28:53;5.45;;;1.23;;
15258;SDS011;34462;51.368;12.364;2022-09-14T10:31:25;3.38;;;1.33;;
15258;SDS011;34462;51.368;12.364;2022-09-14T10:33:59;3.45;;;1.45;;
15258;SDS011;34462;51.368;12.364;2022-09-14T10:36:27;2.20;;;1.20;;
15258;SDS011;34462;51.368;12.364;2022-09-14T10:39:00;4.53;;;1.50;;
15258;SDS011;34462;51.368;12.364;2022-09-14T10:41:44;2.80;;;1.40;;
15258;SDS011;34462;51.368;12.364;2022-09-14T10:44:35;2.15;;;1.00;;
15258;SDS011;34462;51.368;12.364;2022-09-14T10:47:30;3.85;;;1.40;;
15258;SDS011;34462;51.368;12.364;2022-09-14T10:50:48;5.53;;;1.35;;
15258;SDS011;34462;51.368;12.364;2022-09-14T10:53:31;4.18;;;1.35;;
15258;SDS011;34462;51.368;12.364;2022-09-14T10:56:16;4.63;;;1.60;;
15258;SDS011;34462;51.368;12.364;2022-09-14T11:02:00;2.92;;;1.80;;
15258;SDS011;34462;51.368;12.364;2022-09-14T11:05:09;9.32;;;5.95;;
15258;SDS011;34462;51.368;12.364;2022-09-14T11:07:49;3.90;;;3.00;;
15258;SDS011;34462;51.368;12.364;2022-09-14T11:10:32;4.53;;;1.75;;
15258;SDS011;34462;51.368;12.364;2022-09-14T11:13:20;4.70;;;1.85;;
15258;SDS011;34462;51.368;12.364;2022-09-14T11:16:25;1.88;;;1.48;;
15258;SDS011;34462;51.368;12.364;2022-09-14T11:19:24;3.55;;;1.80;;
15258;SDS011;34462;51.368;12.364;2022-09-14T11:22:15;4.45;;;1.98;;
15258;SDS011;34462;51.368;12.364;2022-09-14T11:24:58;3.55;;;2.25;;
15258;SDS011;34462;51.368;12.364;2022-09-14T11:27:38;4.15;;;2.63;;
15258;SDS011;34462;51.368;12.364;2022-09-14T11:30:12;5.78;;;2.63;;
15258;SDS011;34462;51.368;12.364;2022-09-14T11:32:47;4.10;;;2.22;;
15258;SDS011;34462;51.368;12.364;2022-09-14T11:35:21;3.70;;;2.20;;
15258;SDS011;34462;51.368;12.364;2022-09-14T11:37:57;4.43;;;2.20;;
15258;SDS011;34462;51.368;12.364;2022-09-14T11:40:34;3.20;;;2.15;;
15258;SDS011;34462;51.368;12.364;2022-09-14T11:43:12;3.13;;;2.30;;
15258;SDS011;34462;51.368;12.364;2022-09-14T11:45:45;5.57;;;2.63;;
15258;SDS011;34462;51.368;12.364;2022-09-14T11:48:20;3.90;;;2.20;;
15258;SDS011;34462;51.368;12.364;2022-09-14T11:51:11;2.50;;;1.90;;
15258;SDS011;34462;51.368;12.364;2022-09-14T11:53:43;2.55;;;1.70;;
15258;SDS011;34462;51.368;12.364;2022-09-14T11:56:15;4.57;;;2.10;;
15258;SDS011;34462;51.368;12.364;2022-09-14T11:58:52;5.05;;;2.20;;
15258;SDS011;34462;51.368;12.364;2022-09-14T12:01:28;4.28;;;2.58;;
15258;SDS011;34462;51.368;12.364;2022-09-14T12:06:50;5.10;;;2.80;;
15258;SDS011;34462;51.368;12.364;2022-09-14T12:12:26;3.90;;;2.55;;
15258;SDS011;34462;51.368;12.364;2022-09-14T12:15:14;3.40;;;2.40;;
15258;SDS011;34462;51.368;12.364;2022-09-14T12:17:49;2.75;;;2.42;;
15258;SDS011;34462;51.368;12.364;2022-09-14T12:23:20;5.03;;;2.40;;
15258;SDS011;34462;51.368;12.364;2022-09-14T12:26:00;3.95;;;2.30;;
15258;SDS011;34462;51.368;12.364;2022-09-14T12:29:03;3.00;;;2.15;;
15258;SDS011;34462;51.368;12.364;2022-09-14T12:31:59;3.38;;;2.20;;
15258;SDS011;34462;51.368;12.364;2022-09-14T12:44:32;3.42;;;2.40;;
15258;SDS011;34462;51.368;12.364;2022-09-14T12:50:17;3.83;;;2.55;;
15258;SDS011;34462;51.368;12.364;2022-09-14T12:52:53;5.53;;;2.38;;
15258;SDS011;34462;51.368;12.364;2022-09-14T12:55:50;5.82;;;2.53;;
15258;SDS011;34462;51.368;12.364;2022-09-14T13:01:32;4.63;;;2.50;;
15258;SDS011;34462;51.368;12.364;2022-09-14T13:04:12;5.80;;;2.30;;
15258;SDS011;34462;51.368;12.364;2022-09-14T13:06:45;4.90;;;2.45;;
15258;SDS011;34462;51.368;12.364;2022-09-14T13:09:18;3.70;;;2.92;;
15258;SDS011;34462;51.368;12.364;2022-09-14T13:11:53;4.38;;;3.10;;
15258;SDS011;34462;51.368;12.364;2022-09-14T13:14:27;3.92;;;2.40;;
15258;SDS011;34462;51.368;12.364;2022-09-14T13:16:59;3.38;;;2.58;;
15258;SDS011;34462;51.368;12.364;2022-09-14T13:19:31;5.45;;;2.80;;
15258;SDS011;34462;51.368;12.364;2022-09-14T13:22:01;6.60;;;3.15;;
15258;SDS011;34462;51.368;12.364;2022-09-14T13:24:43;5.43;;;2.70;;
15258;SDS011;34462;51.368;12.364;2022-09-14T13:27:17;3.08;;;2.42;;
15258;SDS011;34462;51.368;12.364;2022-09-14T13:29:58;5.53;;;3.03;;
15258;SDS011;34462;51.368;12.364;2022-09-14T13:32:31;4.57;;;2.72;;
15258;SDS011;34462;51.368;12.364;2022-09-14T13:35:13;4.43;;;2.70;;
15258;SDS011;34462;51.368;12.364;2022-09-14T13:37:44;4.80;;;2.95;;
15258;SDS011;34462;51.368;12.364;2022-09-14T13:40:13;5.82;;;3.17;;
15258;SDS011;34462;51.368;12.364;2022-09-14T13:42:43;3.85;;;3.00;;
15258;SDS011;34462;51.368;12.364;2022-09-14T13:45:11;6.57;;;3.40;;
15258;SDS011;34462;51.368;12.364;2022-09-14T13:47:40;4.53;;;2.95;;
15258;SDS011;34462;51.368;12.364;2022-09-14T13:50:11;3.38;;;2.78;;
15258;SDS011;34462;51.368;12.364;2022-09-14T13:52:40;4.93;;;3.05;;
15258;SDS011;34462;51.368;12.364;2022-09-14T13:55:28;3.40;;;2.88;;
15258;SDS011;34462;51.368;12.364;2022-09-14T13:58:13;3.83;;;2.80;;
15258;SDS011;34462;51.368;12.364;2022-09-14T14:00:49;6.13;;;2.72;;
15258;SDS011;34462;51.368;12.364;2022-09-14T14:03:23;3.80;;;2.60;;
15258;SDS011;34462;51.368;12.364;2022-09-14T14:05:58;5.45;;;3.03;;
15258;SDS011;34462;51.368;12.364;2022-09-14T14:08:41;3.28;;;2.72;;
15258;SDS011;34462;51.368;12.364;2022-09-14T14:11:10;3.45;;;3.00;;
15258;SDS011;34462;51.368;12.364;2022-09-14T14:13:39;5.38;;;3.67;;
15258;SDS011;34462;51.368;12.364;2022-09-14T14:16:16;3.90;;;3.20;;
15258;SDS011;34462;51.368;12.364;2022-09-14T14:18:50;4.40;;;2.90;;
15258;SDS011;34462;51.368;12.364;2022-09-14T14:21:28;5.68;;;3.38;;
15258;SDS011;34462;51.368;12.364;2022-09-14T14:24:17;5.40;;;3.58;;
15258;SDS011;34462;51.368;12.364;2022-09-14T14:26:53;4.93;;;3.60;;
15258;SDS011;34462;51.368;12.364;2022-09-14T14:29:25;5.22;;;3.45;;
15258;SDS011;34462;51.368;12.364;2022-09-14T14:31:53;4.45;;;3.38;;
15258;SDS011;34462;51.368;12.364;2022-09-14T14:34:22;9.85;;;3.95;;
15258;SDS011;34462;51.368;12.364;2022-09-14T14:36:52;5.75;;;3.13;;
15258;SDS011;34462;51.368;12.364;2022-09-14T14:39:22;8.98;;;3.72;;
15258;SDS011;34462;51.368;12.364;2022-09-14T14:41:51;5.20;;;3.30;;
15258;SDS011;34462;51.368;12.364;2022-09-14T14:44:20;4.93;;;3.53;;
15258;SDS011;34462;51.368;12.364;2022-09-14T14:46:52;4.25;;;3.40;;
15258;SDS011;34462;51.368;12.364;2022-09-14T14:49:20;6.90;;;3.78;;
15258;SDS011;34462;51.368;12.364;2022-09-14T14:51:48;6.47;;;3.70;;
15258;SDS011;34462;51.368;12.364;2022-09-14T14:54:17;6.03;;;3.70;;
15258;SDS011;34462;51.368;12.364;2022-09-14T14:56:45;8.40;;;3.70;;
15258;SDS011;34462;51.368;12.364;2022-09-14T14:59:22;6.05;;;3.50;;
15258;SDS011;34462;51.368;12.364;2022-09-14T15:01:56;5.30;;;3.67;;
15258;SDS011;34462;51.368;12.364;2022-09-14T15:04:24;4.93;;;3.42;;
15258;SDS011;34462;51.368;12.364;2022-09-14T15:06:52;6.47;;;3.20;;
15258;SDS011;34462;51.368;12.364;2022-09-14T15:09:21;4.38;;;3.22;;
15258;SDS011;34462;51.368;12.364;2022-09-14T15:11:52;5.32;;;3.53;;
15258;SDS011;34462;51.368;12.364;2022-09-14T15:14:21;6.22;;;3.53;;
15258;SDS011;34462;51.368;12.364;2022-09-14T15:16:53;4.18;;;3.17;;
15258;SDS011;34462;51.368;12.364;2022-09-14T15:19:25;3.92;;;3.30;;
15258;SDS011;34462;51.368;12.364;2022-09-14T15:21:54;4.75;;;2.97;;
15258;SDS011;34462;51.368;12.364;2022-09-14T15:24:26;5.28;;;3.45;;
15258;SDS011;34462;51.368;12.364;2022-09-14T15:26:55;4.97;;;3.60;;
15258;SDS011;34462;51.368;12.364;2022-09-14T15:29:24;3.95;;;3.13;;
15258;SDS011;34462;51.368;12.364;2022-09-14T15:31:52;5.75;;;3.30;;
15258;SDS011;34462;51.368;12.364;2022-09-14T15:34:22;6.07;;;3.30;;
15258;SDS011;34462;51.368;12.364;2022-09-14T15:36:51;6.63;;;3.45;;
15258;SDS011;34462;51.368;12.364;2022-09-14T15:39:27;4.63;;;3.25;;
15258;SDS011;34462;51.368;12.364;2022-09-14T15:41:56;3.42;;;2.95;;
15258;SDS011;34462;51.368;12.364;2022-09-14T15:44:25;3.88;;;3.33;;
15258;SDS011;34462;51.368;12.364;2022-09-14T15:46:53;4.70;;;3.40;;
15258;SDS011;34462;51.368;12.364;2022-09-14T15:49:24;3.58;;;3.28;;